Aérodrome :
LOGIN :

S'inscrire | Disclaimer

   EN    FR    IT 

 










Légende :    VFR   VFR Marginal   IFR   IFR Intensif   IFR Très Intensif
Visi : 
Plafond : 
>= 8 km
>= 3000ft
5 à 8 km
1000 à 3000 ft
1500m à 5 km
500 à 1000 ft
800 à 1500m
200 à 500 ft
< 800m
< 200 ft
Symboles :   Orages  Brouillard  Fortes neiges  Fortes précipitations  Vent > 20 kt
SIGMETs :   Divers  Orages  Givrage  Turbulence  Onde Orograph.  Cendres Volcan.






- Altitude de l'aérodrome : 72 ft
- Code IATA : UDE


EHVK - Volkel Airbase

DERNIER METAR :
  • 270555Z AUTO 34006KT 310V010 1900 BR BKN001 OVC003 13/13 Q1034 RED

METARs EXPIRÉS :
  • 270525Z AUTO 35005KT 1300 BR OVC001 13/13 Q1034 RED
  • 270507Z AUTO 34005KT 310V020 1000 BR BKN001 OVC002 13/12 Q1034 RED
  • 270459Z AUTO 35005KT 1200 BR OVC002 13/12 Q1034 AMB
  • 270455Z AUTO 35005KT 2300 BR OVC001 12/12 Q1034 RED
  • 270444Z AUTO 35004KT 4100 BR SCT001 OVC002 12/11 Q1034 RED
  • 270425Z AUTO 34004KT 5000 BR OVC220 11/11 Q1034 WHT
  • 270355Z AUTO 34003KT 8000 BR OVC230 10/10 Q1033 BLU
  • 270341Z AUTO 34003KT 8000 BR OVC230 09/08 Q1033 BLU
  • 270325Z AUTO 32001KT 4800 BR SCT240 09/08 Q1033 GRN
  • 270313Z AUTO 01001KT 4400 BR NCD 09/09 Q1033 GRN
  • 270306Z AUTO 36002KT 5000 BR SCT320 09/08 Q1033 WHT
  • 270255Z AUTO 33002KT 9999 NCD 09/09 Q1033 BLU

TAF TAF EHVK
Valide du 27 à 05h jusqu'au 27 à 17h UTC


270452Z 2705/2717 VRB03KT 5000 BR NSC
TEMPO 2705/2707 1500 BR SCT002 BKN003
PROB30
TEMPO 2705/2706 0800 FG BKN001
BECMG 2705/2707 33006KT
BECMG 2710/2712 34010G20KT FEW040



MET'MAP, la Météo Aéronautique d'un coup d'oeil ! - Copyright ORBIFLY Décembre 2007 - Disclaimer

ORBIFLY MET'MAP TEAM :

Programmation & Développement : Alexandra Zaïnal
Sur une idée originale de : Baudouin d'Aumeries
Assistance à la programmation : Marc-Olivier Méhu
Soutien technique & logistique : Manuel Goepfert

Contact : metmap@orbifly.com




SOURCES & CREDITS :

   NOAA